Station MTBF1 - 8726412 - Middle Tampa Bay, FL Image indicating link to RSS feed of recent meteorological observations for station MTBF1


Conditions at MTBF1 as of
(3:18 am EDT)
0718 GMT on 09/06/2026:
     

Click on the graph icon in the table below to see a time series plot of the last five days of that observation.

5-day plot - Wind Direction Wind Direction (WDIR): W ( 270 deg true )
5-day plot - Wind Speed Wind Speed (WSPD): 2.9 kts
5-day plot - Wind Gust Wind Gust (GST): 4.1 kts
5-day plot - Atmospheric Pressure Atmospheric Pressure (PRES):29.87 in
5-day plot - Visibility Visibility (VIS): 5.9 nmi
5-day plot - Wind Speed at 10 Meters Wind Speed at 10 meters (WSPD10M): 3.9 kts
5-day plot - Wind Speed at 20 Meters Wind Speed at 20 meters (WSPD20M): 3.9 kts
5-day plot -  Wind Speed, Wind Gust and Atmospheric Pressure Combined plot of Wind Speed, Gust, and Air Pressure
NOS Water Level Observation Network Water Level
Previous observations
TIME
(EDT)
5-day plot - Wind Direction
WDIR
 
5-day plot - Wind Speed
WSPD
kts
5-day plot - Wind Gust
GST
kts
5-day plot - Wave Height
WVHT
ft
5-day plot - Dominant Wave Period
DPD
sec
5-day plot - Average Wave Period
APD
sec
5-day plot - Mean Wave Direction
MWD
 
5-day plot - Atmospheric Pressure
PRES
in
5-day plot - Pressure Tendency
PTDY
in
5-day plot - Air Temperature
ATMP
°F
5-day plot - Water Temperature
WTMP
°F
5-day plot - Dew Point
DEWP
°F
5-day plot - Salinity
SAL
psu
5-day plot - Visibility
VIS
nmi
5-day plot - Tide (above MLLW)
TIDE
ft
2026-09-06 03:12 am W 1.9 2.9----29.88----- 5.9-
2026-09-06 03:06 amWNW 2.9 4.1----29.88----- 5.9-
2026-09-06 03:00 am NW 2.9 4.1----29.88-0.04 84.0- 79.0- 5.9-
2026-09-06 02:54 amWSW 1.0 2.9----29.88- 84.2- 79.3- 5.9-
2026-09-06 02:48 am NW 1.9 4.1----29.88- 84.2- 79.3- 5.9-
2026-09-06 02:42 amWNW 4.1 6.0----29.88- 84.2- 79.3- 5.9-
2026-09-06 02:36 am NW 4.1 6.0----29.89- 84.4- 79.7- 5.9-
2026-09-06 02:30 am W 4.1 6.0----29.89- 84.2- 79.5- 5.9-
2026-09-06 02:24 am W 4.1 5.1----29.89- 84.4- 79.9- 5.9-
2026-09-06 02:18 am W 4.1 5.1----29.89----- 5.9-
2026-09-06 02:12 am W 4.1 5.1----29.90----- 5.9-
2026-09-06 02:06 amWSW 2.9 4.1----29.90----- 5.9-
2026-09-06 02:00 am W 2.9 4.1----29.91-0.02 84.6- 79.9- 5.9-
2026-09-06 01:54 am W 1.9 2.9----29.91- 84.4- 79.7- 5.9-
2026-09-06 01:48 am W 2.9 6.0----29.91- 84.4- 79.9- 5.9-
2026-09-06 01:42 am W 2.9 5.1----29.91- 84.7- 80.2- 5.9-
2026-09-06 01:36 amWNW 2.9 5.1----29.91- 84.6- 79.9- 5.9-
2026-09-06 01:30 am W 2.9 4.1----29.92- 84.6- 79.9- 5.9-
2026-09-06 01:24 am W 2.9 4.1----29.92- 84.7- 79.9- 5.9-
2026-09-06 01:18 am NW 4.1 5.1----29.92----- 5.9-
2026-09-06 01:12 amWNW 2.9 5.1----29.91----- 5.9-
2026-09-06 01:06 am W 2.9 4.1----29.92----- 5.9-
2026-09-06 01:00 am W 4.1 5.1----29.91-0.01 84.4- 79.5- 5.9-
2026-09-06 12:54 am NW 5.1 5.1----29.92- 84.6- 79.7- 5.9-
2026-09-06 12:48 am W 2.9 4.1----29.91- 84.4- 79.5- 5.9-
2026-09-06 12:42 am NW 4.1 4.1----29.91- 84.6- 79.9- 5.9-
2026-09-06 12:36 am W 2.9 4.1----29.91- 84.6- 79.9- 5.9-
2026-09-06 12:30 amWNW 1.9 2.9----29.91- 84.6- 79.9- 5.9-
2026-09-06 12:24 amWSW 2.9 2.9----29.91- 84.6- 79.9- 5.9-
2026-09-06 12:18 am W 1.9 1.9----29.92----- 5.9-
2026-09-06 12:12 am W 1.9 4.1----29.92----- 5.9-
2026-09-06 12:06 am W 2.9 5.1----29.92----- 5.9-
2026-09-06 12:00 am- 0.0 1.9----29.92+0.01 84.7- 79.9- 5.9-
2026-09-05 11:54 pm- 0.0 4.1----29.92- 84.6- 79.9- 5.9-
2026-09-05 11:48 pmWSW 2.9 5.1----29.92- 84.9- 80.1- 5.9-
2026-09-05 11:42 pm W 2.9 4.1----29.93- 84.9- 80.1- 5.9-
2026-09-05 11:36 pm W 1.9 4.1----29.92- 84.7- 79.9- 5.9-
2026-09-05 11:30 pm W 2.9 4.1----29.92- 84.7- 79.9- 5.9-
2026-09-05 11:24 pm W 2.9 5.1----29.92- 84.7- 79.9- 5.9-
2026-09-05 11:18 pmWSW 2.9 4.1----29.92- 84.6- 79.7- 5.9-
2026-09-05 11:12 pmSSW 1.0 2.9----29.92- 84.6- 79.7- 5.9-
2026-09-05 11:06 pm- 0.0 1.9----29.92- 84.6- 79.5- 5.9-
2026-09-05 11:00 pmSSW 1.0 1.9----29.93+0.02 84.6- 79.5- 5.9-
2026-09-05 10:54 pm- 0.0 1.0----29.92- 84.6- 79.5- 5.9-
2026-09-05 10:48 pm- 0.0 1.0----29.92- 84.4- 79.3- 5.9-
2026-09-05 10:42 pm- 0.0 0.0----29.92- 84.6- 79.5- 5.9-
2026-09-05 10:36 pm- 0.0 1.0----29.93- 84.6- 79.5- 5.9-
2026-09-05 10:30 pm- 0.0 1.0----29.93- 84.7- 79.7- 5.9-
2026-09-05 10:24 pmNNE 1.0 2.9----29.93- 84.6- 79.5- 5.9-
2026-09-05 10:18 pm N 2.9 4.1----29.93----- 5.9-
2026-09-05 10:12 pm N 1.9 2.9----29.93----- 5.9-
2026-09-05 10:06 pm- 0.0 1.9----29.93----- 5.9-
2026-09-05 10:00 pmNNW 1.9 2.9----29.92+0.01 84.7- 79.5- 5.9-
2026-09-05 09:54 pmNNW 1.9 4.1----29.92- 84.6- 79.3- 5.9-
2026-09-05 09:48 pmNNW 4.1 5.1----29.92- 84.6- 79.3- 5.9-
2026-09-05 09:42 pmNNW 4.1 5.1----29.92- 84.6- 79.3- 5.9-
2026-09-05 09:36 pmNNW 5.1 5.1----29.92- 78.4- 72.0- 5.9-
2026-09-05 09:30 pmNNW 4.1 6.0----29.91- 84.7- 79.7- 5.9-
2026-09-05 09:24 pmNNW 5.1 6.0----29.91- 85.1- 80.2- 5.9-
2026-09-05 09:18 pm NW 2.9 6.0----29.91----- 5.9-
2026-09-05 09:12 pmNNW 4.1 5.1----29.91----- 5.9-
2026-09-05 09:06 pmNNW 4.1 7.0----29.91----- 5.9-
2026-09-05 09:00 pmNNW 5.1 6.0----29.91+0.00 85.3- 80.6- 5.9-
2026-09-05 08:54 pm NW 7.0 8.0----29.91- 84.9- 80.1- 5.9-
2026-09-05 08:48 pmNNW 8.9 8.9----29.91- 84.9- 79.9- 5.9-
2026-09-05 08:42 pmNNW 8.0 8.9----29.91- 85.1- 80.2- 5.9-
2026-09-05 08:36 pm NW 7.0 8.9----29.91- 85.1- 80.1- 4.3-
2026-09-05 08:30 pm NW 6.0 8.0----29.91- 85.3- 80.2- 5.9-
2026-09-05 08:24 pmNNW 8.9 9.9----29.90- 85.3- 79.9- 5.9-
2026-09-05 08:18 pmNNW 8.0 9.9----29.91----- 5.9-
2026-09-05 08:12 pm NW 8.9 12.0----29.91----- 5.9-
2026-09-05 08:06 pm NW 9.9 12.0----29.91----- 5.9-
2026-09-05 08:00 pm NW 11.1 12.0----29.91+0.00 85.3- 79.5- 5.9-
2026-09-05 07:54 pm NW 8.9 12.0----29.91- 85.3- 79.5- 5.9-
2026-09-05 07:48 pm NW 11.1 12.0----29.90----- 5.9-
2026-09-05 07:42 pm NW 11.1 12.0----29.91----- 5.9-
2026-09-05 07:36 pm NW 11.1 12.0----29.91----- 5.9-
2026-09-05 07:30 pm NW 11.1 12.0----29.91- 85.5- 79.2- 5.9-
2026-09-05 07:24 pm NW 9.9 12.0----29.91- 85.8- 79.7- 5.9-
2026-09-05 07:18 pm NW 9.9 12.0----29.91----- 5.9-
2026-09-05 07:12 pm NW 9.9 13.0----29.91----- 5.9-
2026-09-05 07:06 pm NW 9.9 12.0----29.91----- 5.9-
2026-09-05 07:00 pm NW 9.9 12.0----29.91+0.00 86.0- 79.5- 5.9-
2026-09-05 06:54 pm NW 11.1 12.0----29.91- 85.6- 79.7- 5.9-
2026-09-05 06:48 pm NW 9.9 13.0----29.91- 85.8- 80.1- 5.9-
2026-09-05 06:42 pm NW 11.1 12.0----29.91- 85.6- 79.9- 5.9-
2026-09-05 06:36 pm NW 9.9 13.0----29.91- 85.8- 80.2- 5.9-
2026-09-05 06:30 pm NW 9.9 13.0----29.91- 86.0- 80.8- 5.9-
2026-09-05 06:24 pm NW 11.1 13.0----29.91- 85.8- 80.2- 5.9-
2026-09-05 06:18 pmWNW 9.9 13.0----29.91----- 5.9-
2026-09-05 06:12 pm NW 11.1 13.0----29.91----- 5.9-
2026-09-05 06:06 pm NW 11.1 13.0----29.91----- 5.9-
2026-09-05 06:00 pm NW 11.1 13.0----29.91-0.02 85.8- 80.4- 5.9-
2026-09-05 05:54 pm NW 9.9 12.0----29.91- 85.8--- 5.9-
2026-09-05 05:48 pm NW 8.9 13.0----29.91- 85.8--- 5.9-
2026-09-05 05:42 pmWNW 12.0 13.0----29.91- 85.6--- 5.9-
2026-09-05 05:36 pm NW 11.1 12.0----29.91- 85.6--- 5.9-
2026-09-05 05:30 pm NW 9.9 13.0----29.91- 85.6--- 5.9-
2026-09-05 05:24 pm NW 11.1 13.0----29.91- 85.6--- 5.9-
2026-09-05 05:18 pmWNW 11.1 13.0----29.90----- 5.9-
2026-09-05 05:12 pm NW 11.1 15.0----29.91----- 5.9-
2026-09-05 05:06 pm NW 12.0 13.0----29.91----- 5.9-
2026-09-05 05:00 pm NW 11.1 14.0----29.91- 79.3- 71.8- 5.9-
2026-09-05 04:54 pmWNW 12.0 14.0----29.91- 85.6- 79.3- 5.9-
2026-09-05 04:48 pm NW 12.0 15.0----29.91- 85.3- 79.3- 5.9-
2026-09-05 04:42 pm NW 12.0 14.0----29.91- 85.6- 79.9- 5.9-
2026-09-05 04:36 pm NW 12.0 15.0----29.91- 85.6- 79.9- 5.9-
2026-09-05 04:30 pmWNW 12.0 14.0----29.91- 85.8- 80.4- 5.9-
2026-09-05 04:24 pmWNW 11.1 14.0----29.90- 85.8- 80.2- 5.9-
2026-09-05 04:18 pmWNW 12.0 13.0----29.90----- 5.9-
2026-09-05 04:12 pmWNW 11.1 14.0----29.90----- 5.9-
2026-09-05 04:06 pmWNW 12.0 14.0----29.90----- 5.9-
2026-09-05 04:00 pmWNW 12.0 13.0----29.91-0.05 85.6- 81.1- 5.9-
2026-09-05 03:54 pmWNW 11.1 14.0----29.91- 85.6- 81.3- 5.9-
2026-09-05 03:48 pmWNW 9.9 12.0----29.91- 85.8- 81.3- 5.9-
2026-09-05 03:42 pmWNW 8.9 12.0----29.92- 85.8- 81.0- 5.9-
2026-09-05 03:36 pm W 8.9 11.1----29.92- 79.3- 72.9- 5.9-
2026-09-05 03:30 pmWNW 9.9 12.0----29.92- 85.8- 80.4- 5.9-
2026-09-05 03:24 pm W 8.9 11.1----29.93- 85.8- 80.2- 5.9-
2026-09-05 03:18 pm W 9.9 11.1----29.93----- 5.9-
2026-09-05 03:12 pmWNW 8.0 11.1----29.93----- 5.9-
2026-09-05 03:06 pm W 8.9 11.1----29.93----- 5.9-
2026-09-05 03:00 pm W 8.0 11.1----29.93-0.05 85.5- 80.8- 5.9-
2026-09-05 02:54 pmWNW 8.9 11.1----29.93- 85.5- 81.0- 5.9-
2026-09-05 02:48 pm W 9.9 12.0----29.93- 85.5- 80.8- 5.9-
2026-09-05 02:42 pmWNW 8.9 11.1----29.93- 85.6- 80.8- 5.9-
2026-09-05 02:36 pmWNW 8.9 11.1----29.93- 85.5- 80.6- 5.9-
2026-09-05 02:30 pmWNW 8.9 11.1----29.93- 85.6- 81.0- 5.9-
2026-09-05 02:24 pmWNW 8.9 11.1----29.93- 85.5- 80.8- 5.9-
2026-09-05 02:18 pmWNW 8.0 11.1----29.93----- 5.9-
2026-09-05 02:12 pm W 9.9 11.1----29.93----- 5.9-
2026-09-05 02:06 pm W 8.9 11.1----29.94----- 5.9-
2026-09-05 02:00 pm W 8.9 11.1------ 85.3- 80.6- 5.9-
2026-09-05 01:54 pm W 8.9 11.1------ 85.3- 81.0- 5.9-
2026-09-05 01:48 pm W 8.9 9.9----29.94- 85.3- 80.6- 5.9-
2026-09-05 01:42 pm W 8.0 9.9----29.94- 84.9- 80.4- 5.9-
2026-09-05 01:36 pm W 8.0 9.9----29.95- 85.3- 81.3- 5.9-
2026-09-05 01:30 pm W 8.0 9.9----29.95- 85.5- 81.5- 5.9-
2026-09-05 01:24 pm W 8.0 9.9----29.95- 85.3- 81.1- 5.9-
2026-09-05 01:18 pm W 8.0 8.9----29.96----- 5.9-
2026-09-05 01:12 pm W 8.0 11.1----29.96----- 5.9-
2026-09-05 01:06 pm W 8.0 9.9----29.96----- 5.9-
2026-09-05 01:00 pmWSW 8.9 8.9----29.96-0.01 84.9- 81.1- 5.9-
2026-09-05 12:54 pm W 8.9 9.9----29.96- 85.3- 81.7- 5.9-
2026-09-05 12:48 pm W 8.0 9.9----29.96- 85.3- 81.9- 5.9-
2026-09-05 12:42 pm W 8.0 8.9----29.97- 85.1- 81.7- 5.9-
2026-09-05 12:36 pm W 6.0 8.0----29.97- 85.1- 81.9- 5.9-
2026-09-05 12:30 pm W 6.0 8.0----29.97- 85.3- 82.0- 5.9-
2026-09-05 12:24 pm W 6.0 8.0----29.97- 85.1- 81.9- 5.9-
2026-09-05 12:18 pm W 7.0 8.0----29.97- 85.1- 82.0- 5.9-
2026-09-05 12:12 pm W 7.0 8.0----29.98- 85.1- 82.0- 5.9-
2026-09-05 12:06 pm W 6.0 8.0----29.97- 85.3- 82.2- 5.9-
2026-09-05 12:00 pmWSW 5.1 7.0----29.97+0.01 85.3- 82.0- 5.9-
2026-09-05 11:54 amWSW 5.1 7.0----29.97- 85.6- 82.6- 5.9-
2026-09-05 11:48 am W 6.0 7.0----29.98- 85.3- 82.0- 5.9-
2026-09-05 11:42 am W 5.1 7.0----29.98- 85.3- 81.9- 5.9-
2026-09-05 11:36 am W 5.1 7.0----29.98- 85.3- 82.0- 5.9-
2026-09-05 11:30 amWSW 6.0 7.0----29.98- 85.3- 82.0- 5.9-
2026-09-05 11:24 amWSW 6.0 8.0----29.98- 85.1- 82.0- 5.9-
2026-09-05 11:18 amWSW 4.1 7.0----29.98----- 5.9-
2026-09-05 11:12 amWSW 6.0 8.0----29.98----- 5.9-
2026-09-05 11:06 am SW 7.0 8.0----29.97----- 5.9-
2026-09-05 11:00 am SW 5.1 8.9----29.97+0.01 86.2- 82.8- 5.9-
2026-09-05 10:54 am SW 7.0 8.9----29.97- 86.4- 83.1- 5.9-
2026-09-05 10:48 am SW 6.0 8.0----29.97- 86.5- 83.3- 5.9-
2026-09-05 10:42 am SW 7.0 8.9----29.97- 86.5- 83.5- 5.9-
2026-09-05 10:36 am SW 7.0 8.9----29.96- 86.4- 83.5- 5.9-
2026-09-05 10:30 am SW 6.0 8.0----29.96- 86.2- 83.7- 5.9-
2026-09-05 10:24 am SW 5.1 7.0----29.96- 86.2- 84.0- 5.9-
2026-09-05 10:18 am SW 5.1 7.0----29.96----- 5.9-
2026-09-05 10:12 amSSW 6.0 7.0----29.96----- 5.9-
2026-09-05 10:06 amSSW 5.1 7.0----29.96----- 5.9-
2026-09-05 10:00 amSSW 5.1 7.0----29.96- 85.3--- 5.9-
2026-09-05 09:54 am S 6.0 6.0----29.97- 84.7--- 5.9-
2026-09-05 09:48 amSSW 5.1 6.0----29.97- 84.9- 84.6- 5.9-
2026-09-05 09:42 amSSW 5.1 6.0----29.97- 84.6- 84.2- 5.9-
2026-09-05 09:36 amSSW 6.0 7.0----29.97- 84.4- 84.0- 5.9-
2026-09-05 09:30 amSSW 6.0 7.0----29.97- 84.2- 83.8- 5.9-
2026-09-05 09:24 amSSW 5.1 7.0----29.97- 78.1- 76.3- 5.9-
2026-09-05 09:18 amSSW 6.0 7.0----29.97----- 5.9-
2026-09-05 09:12 amSSW 6.0 7.0----29.96----- 5.9-
2026-09-05 09:06 amSSW 8.0 8.0----29.96----- 5.9-
2026-09-05 09:00 amSSW 7.0 8.0----29.96+0.03 83.7- 83.3- 5.9-
2026-09-05 08:54 amSSW 6.0 7.0----29.96- 83.3- 82.9- 5.9-
2026-09-05 08:48 amSSW 7.0 8.0----29.96- 83.1- 82.8- 5.9-
2026-09-05 08:42 amSSW 7.0 7.0----29.96- 83.5- 83.1- 5.9-
2026-09-05 08:36 am S 6.0 7.0----29.96- 83.1- 82.8- 5.9-
2026-09-05 08:30 am S 5.1 6.0----29.96- 83.1- 82.8- 5.9-
2026-09-05 08:24 am S 5.1 6.0----29.96- 82.9- 82.6- 5.9-
2026-09-05 08:18 am S 5.1 6.0----29.96----- 5.9-
2026-09-05 08:12 am S 5.1 6.0----29.96----- 5.9-
2026-09-05 08:06 am S 5.1 6.0----29.96----- 5.9-
2026-09-05 08:00 am S 5.1 5.1----29.96+0.03 82.4- 82.0- 5.9-
2026-09-05 07:54 am S 5.1 6.0----29.96- 82.2- 81.9- 5.9-
2026-09-05 07:48 am S 5.1 6.0----29.96----- 5.9-
2026-09-05 07:42 am S 5.1 6.0----29.96----- 5.9-
2026-09-05 07:36 am S 5.1 6.0----29.96----- 5.9-
2026-09-05 07:30 am S 5.1 6.0----29.95- 81.3- 81.0- 5.9-
2026-09-05 07:24 amSSE 6.0 6.0----29.95- 80.8- 80.4- 5.9-
2026-09-05 07:18 amSSE 5.1 6.0----29.96----- 5.9-
2026-09-05 07:12 amSSE 5.1 6.0----29.95----- 5.9-
2026-09-05 07:06 amSSE 5.1 7.0----29.95----- 5.9-
2026-09-05 07:00 amSSE 7.0 7.0------ 80.6- 80.2- 5.9-
2026-09-05 06:54 am S 6.0 7.0------ 81.1- 80.8- 5.9-
2026-09-05 06:48 am S 6.0 8.0----29.94- 81.1- 80.8- 5.9-
2026-09-05 06:42 am S 8.0 8.0----29.94- 80.8- 80.4- 5.9-
2026-09-05 06:36 am S 7.0 8.0----29.94- 81.0- 80.6- 5.9-
2026-09-05 06:30 amSSE 8.0 8.9----29.94- 80.6- 80.2- 5.9-
2026-09-05 06:24 amSSE 6.0 8.0----29.94- 81.0- 80.6- 5.9-
2026-09-05 06:18 amSSE 7.0 8.0----29.93----- 5.9-
2026-09-05 06:12 amSSE 6.0 8.0----29.94----- 5.9-
2026-09-05 06:06 amSSE 6.0 7.0----29.93----- 5.9-
2026-09-05 06:00 amSSE 6.0 7.0----29.94+0.00 81.1- 80.8- 5.9-
2026-09-05 05:54 am S 6.0 8.0----29.94- 81.0- 80.6- 5.9-
2026-09-05 05:48 amSSE 7.0 8.0----29.93- 81.0- 80.6- 5.9-
2026-09-05 05:42 amSSE 7.0 8.0----29.93- 80.8- 80.4- 5.9-
2026-09-05 05:36 am S 8.0 8.9----29.93- 80.4- 80.1- 5.9-
2026-09-05 05:30 amSSE 8.0 8.9----29.93- 80.4- 80.1- 5.9-
2026-09-05 05:24 am S 8.9 9.9----29.93- 80.4- 80.1- 5.9-
2026-09-05 05:18 am S 8.0 11.1----29.93----- 5.9-
2026-09-05 05:12 am S 8.0 9.9----29.93----- 5.9-
2026-09-05 05:06 am S 8.0 8.9----29.93----- 5.9-
2026-09-05 05:00 amSSE 8.0 8.9----29.93-0.01 80.8- 80.4- 5.9-
2026-09-05 04:54 amSSE 8.0 8.9----29.93- 81.1- 80.8- 5.9-
2026-09-05 04:48 amSSE 8.0 8.9----29.93- 81.0- 80.6- 5.9-
2026-09-05 04:42 amSSE 8.0 8.9----29.93- 80.8- 80.4- 5.9-
2026-09-05 04:36 amSSE 8.0 8.9----29.93- 81.1- 80.8- 5.9-
2026-09-05 04:30 amSSE 8.0 8.9----29.92- 81.1- 80.8- 5.9-
2026-09-05 04:24 amSSE 8.0 9.9----29.92- 81.0- 80.6- 5.9-
2026-09-05 04:18 amSSE 8.9 9.9----29.92----- 5.9-
2026-09-05 04:12 am S 8.9 8.9----29.92----- 5.9-
2026-09-05 04:06 am S 8.0 8.9----29.92----- 5.9-
2026-09-05 04:00 amSSE 8.0 8.9----29.93-0.04 81.0- 80.6- 5.9-
2026-09-05 03:54 amSSE 8.9 8.9----29.93- 80.6- 80.2- 5.9-
2026-09-05 03:48 amSSE 8.9 9.9----29.93- 80.6- 80.2- 5.9-
2026-09-05 03:42 amSSE 8.0 8.9----29.93- 81.1- 80.8- 5.9-
2026-09-05 03:36 am S 7.0 8.9----29.93- 81.3- 81.0- 5.9-
2026-09-05 03:30 am S 8.0 8.9----29.93- 81.0- 80.6- 5.9-
2026-09-05 03:24 am S 8.0 9.9----29.93- 81.0- 80.6- 5.9-
2026-09-05 03:18 am S 8.9 9.9----29.93- 80.8- 80.4- 5.9-
2026-09-05 03:12 amSSE 8.9 9.9----29.93- 80.6- 80.2- 5.9-
2026-09-05 03:06 amSSE 8.9 9.9----29.93- 80.8- 80.4- 5.9-
2026-09-05 03:00 amSSE 8.0 8.9----29.93-0.03 81.0- 80.6- 5.9-
2026-09-05 02:54 amSSE 8.9 11.1----29.93- 81.0- 80.6- 5.9-